Time;durP1;ratioP1;P1;durP2;ratioP2;P2;SDS_P1;SDS_P2;PMS_P1;PMS_P2;Temp;Humidity;BMP_temperature;BMP_pressure;BME280_temperature;BME280_humidity;BME280_pressure;Samples;Min_cycle;Max_cycle;Signal;HPM_P1;HPM_P2
2021/01/29 00:02:02;;;;;;;;;;;19.10;56.70;;;;;;5051937;28;1396;-67
2021/01/29 00:04:28;;;;;;;;;;;19.00;56.70;;;;;;5051571;28;1345;-67
2021/01/29 00:06:53;;;;;;;;;;;19.00;56.70;;;;;;5053484;28;1115;-66
2021/01/29 00:09:23;;;;;;;;;;;19.00;56.70;;;;;;5053884;28;1303;-66
2021/01/29 00:11:48;;;;;;;;;;;19.00;56.70;;;;;;5051561;28;1372;-66
2021/01/29 00:14:14;;;;;;;;;;;19.00;56.70;;;;;;5040564;28;1934;-66
2021/01/29 00:16:39;;;;;;;;;;;19.00;56.70;;;;;;5053549;28;1325;-66
2021/01/29 00:19:05;;;;;;;;;;;19.00;56.70;;;;;;5048307;28;1367;-66
2021/01/29 00:21:30;;;;;;;;;;;19.00;56.70;;;;;;5033113;28;1377;-67
2021/01/29 00:23:56;;;;;;;;;;;19.00;56.80;;;;;;5031813;28;1385;-66
2021/01/29 00:26:21;;;;;;;;;;;19.00;56.80;;;;;;5048398;28;1265;-66
2021/01/29 00:28:47;;;;;;;;;;;19.00;56.80;;;;;;5033202;28;1298;-66
2021/01/29 00:31:12;;;;;;;;;;;19.00;56.80;;;;;;5032826;28;1282;-67
2021/01/29 00:33:38;;;;;;;;;;;19.00;56.80;;;;;;5032690;28;1902;-66
2021/01/29 00:36:04;;;;;;;;;;;19.00;56.80;;;;;;5032245;28;1416;-66
2021/01/29 00:38:29;;;;;;;;;;;19.00;56.80;;;;;;5032293;28;1337;-67
2021/01/29 00:40:54;;;;;;;;;;;19.00;56.80;;;;;;5031288;28;1373;-67
2021/01/29 00:43:20;;;;;;;;;;;19.00;56.80;;;;;;5048602;28;1293;-67
2021/01/29 00:45:46;;;;;;;;;;;19.00;56.80;;;;;;5032757;28;1311;-67
2021/01/29 00:48:11;;;;;;;;;;;19.00;56.80;;;;;;5032473;28;1353;-67
2021/01/29 00:50:37;;;;;;;;;;;18.90;56.80;;;;;;5032543;28;1373;-67
2021/01/29 00:53:02;;;;;;;;;;;19.00;56.90;;;;;;5032529;28;1274;-67
2021/01/29 00:55:28;;;;;;;;;;;19.00;56.90;;;;;;5032345;28;1969;-66
2021/01/29 00:57:53;;;;;;;;;;;18.90;56.80;;;;;;5039876;28;1122;-66
2021/01/29 01:00:19;;;;;;;;;;;18.90;56.80;;;;;;5052699;28;1353;-66
2021/01/29 01:02:44;;;;;;;;;;;18.90;56.80;;;;;;5052518;28;1084;-66
2021/01/29 01:05:11;;;;;;;;;;;18.90;56.80;;;;;;5052197;28;1305;-66
2021/01/29 01:07:36;;;;;;;;;;;18.90;56.80;;;;;;5051350;28;1134;-66
2021/01/29 01:10:02;;;;;;;;;;;18.90;56.80;;;;;;5051842;28;1340;-66
2021/01/29 01:12:28;;;;;;;;;;;18.90;56.80;;;;;;5052507;28;1279;-67
2021/01/29 01:14:53;;;;;;;;;;;18.90;56.80;;;;;;5051575;28;1894;-67
2021/01/29 01:17:19;;;;;;;;;;;19.00;56.90;;;;;;5050564;28;1106;-67
2021/01/29 01:19:44;;;;;;;;;;;19.00;56.80;;;;;;5040371;28;1370;-67
2021/01/29 01:22:10;;;;;;;;;;;18.90;56.80;;;;;;5048059;28;1305;-66
2021/01/29 01:24:41;;;;;;;;;;;19.00;56.80;;;;;;5047921;28;1402;-67
2021/01/29 01:27:07;;;;;;;;;;;19.00;56.90;;;;;;5032402;28;1332;-67
2021/01/29 01:29:33;;;;;;;;;;;19.00;56.90;;;;;;5032281;28;1697;-67
2021/01/29 01:31:58;;;;;;;;;;;19.00;56.90;;;;;;5047421;28;1273;-67
2021/01/29 01:34:24;;;;;;;;;;;19.00;57.40;;;;;;5047331;28;1969;-67
2021/01/29 01:36:49;;;;;;;;;;;19.00;56.80;;;;;;5032287;28;1298;-67
2021/01/29 01:39:15;;;;;;;;;;;18.90;56.80;;;;;;5032150;28;1365;-67
2021/01/29 01:41:40;;;;;;;;;;;18.90;56.80;;;;;;5032004;28;1350;-67
2021/01/29 01:44:18;;;;;;;;;;;18.90;56.80;;;;;;5031689;28;1324;-66
2021/01/29 01:46:43;;;;;;;;;;;18.90;56.80;;;;;;5047474;28;1281;-67
2021/01/29 01:49:09;;;;;;;;;;;18.90;56.80;;;;;;5047461;28;1279;-66
2021/01/29 01:51:48;;;;;;;;;;;18.90;56.80;;;;;;5048245;28;1154;-66
2021/01/29 01:54:37;;;;;;;;;;;18.90;56.80;;;;;;5031697;28;1915;-67
2021/01/29 01:57:03;;;;;;;;;;;18.90;56.80;;;;;;5030136;28;1342;-66
2021/01/29 01:59:33;;;;;;;;;;;18.90;56.90;;;;;;5051062;28;1840;-66
2021/01/29 02:01:58;;;;;;;;;;;18.90;56.90;;;;;;5050983;28;1396;-66
2021/01/29 02:04:24;;;;;;;;;;;18.90;56.90;;;;;;5050668;28;1359;-66
2021/01/29 02:06:59;;;;;;;;;;;18.90;56.90;;;;;;5050421;28;1455;-67
2021/01/29 02:09:25;;;;;;;;;;;18.90;56.90;;;;;;5050325;28;1372;-67
2021/01/29 02:11:51;;;;;;;;;;;18.90;57.00;;;;;;5051751;28;1387;-67
2021/01/29 02:14:16;;;;;;;;;;;18.90;56.90;;;;;;5051773;28;1898;-67
2021/01/29 02:16:44;;;;;;;;;;;18.90;56.90;;;;;;5051838;28;1308;-67
2021/01/29 02:19:14;;;;;;;;;;;18.90;57.00;;;;;;5045618;28;1381;-68
2021/01/29 02:21:49;;;;;;;;;;;18.90;57.00;;;;;;5013623;28;1310;-67
2021/01/29 02:24:33;;;;;;;;;;;18.90;57.00;;;;;;5047165;28;1353;-68
2021/01/29 02:27:17;;;;;;;;;;;18.90;56.90;;;;;;5033878;28;1099;-67
2021/01/29 02:29:48;;;;;;;;;;;18.90;57.00;;;;;;5035363;28;1272;-68
2021/01/29 02:32:32;;;;;;;;;;;18.90;57.00;;;;;;5034930;28;1157;-66
2021/01/29 02:34:57;;;;;;;;;;;18.90;57.00;;;;;;5035059;28;1906;-66
2021/01/29 02:37:45;;;;;;;;;;;18.90;57.00;;;;;;5035324;28;1071;-67
2021/01/29 02:40:14;;;;;;;;;;;18.90;57.00;;;;;;5050862;28;1397;-66
2021/01/29 02:42:51;;;;;;;;;;;18.90;57.00;;;;;;5051289;28;1059;-67
2021/01/29 02:45:23;;;;;;;;;;;18.90;56.90;;;;;;5053377;28;1301;-67
2021/01/29 02:47:54;;;;;;;;;;;18.90;56.80;;;;;;5055160;28;1392;-67
2021/01/29 02:50:22;;;;;;;;;;;18.90;56.80;;;;;;5054054;28;1280;-67
2021/01/29 02:53:14;;;;;;;;;;;18.90;56.80;;;;;;5034270;28;1380;-66
2021/01/29 02:55:45;;;;;;;;;;;19.00;56.80;;;;;;5033167;28;1241;-66
2021/01/29 02:58:17;;;;;;;;;;;19.00;56.60;;;;;;5050204;28;1098;-66
2021/01/29 03:00:47;;;;;;;;;;;19.00;56.60;;;;;;5051249;28;1354;-68
2021/01/29 03:03:25;;;;;;;;;;;19.00;56.50;;;;;;5053519;28;1291;-67
2021/01/29 03:05:59;;;;;;;;;;;19.10;56.50;;;;;;5053613;28;1432;-67
2021/01/29 03:08:26;;;;;;;;;;;19.10;56.50;;;;;;5053718;28;1269;-67
2021/01/29 03:11:01;;;;;;;;;;;19.10;56.40;;;;;;5054645;28;1320;-66
2021/01/29 03:13:53;;;;;;;;;;;19.10;56.40;;;;;;5037933;28;1977;-67
2021/01/29 03:16:23;;;;;;;;;;;19.10;56.40;;;;;;5026017;28;1221;-67
2021/01/29 03:18:54;;;;;;;;;;;19.10;56.40;;;;;;5047062;28;1287;-67
2021/01/29 03:21:25;;;;;;;;;;;19.10;56.30;;;;;;5041070;28;1340;-67
2021/01/29 03:23:55;;;;;;;;;;;19.10;56.40;;;;;;5052955;28;1324;-67
2021/01/29 03:26:24;;;;;;;;;;;19.10;56.30;;;;;;5052442;28;1169;-67
2021/01/29 03:28:51;;;;;;;;;;;19.10;56.30;;;;;;5053430;28;1332;-68
2021/01/29 03:31:17;;;;;;;;;;;19.10;56.30;;;;;;5053019;28;1419;-68
2021/01/29 03:33:42;;;;;;;;;;;19.10;56.30;;;;;;5052351;28;1894;-68
2021/01/29 03:36:13;;;;;;;;;;;19.10;56.30;;;;;;5069448;28;1288;-68
2021/01/29 03:38:47;;;;;;;;;;;19.10;56.30;;;;;;5078823;22;2058;-67
2021/01/29 03:41:18;;;;;;;;;;;19.10;56.40;;;;;;5029301;28;2076;-67
2021/01/29 03:44:00;;;;;;;;;;;19.10;56.30;;;;;;5033247;28;1715;-68
2021/01/29 03:46:29;;;;;;;;;;;19.10;56.30;;;;;;5034506;28;1438;-67
2021/01/29 03:48:54;;;;;;;;;;;19.10;56.30;;;;;;5033338;28;1657;-66
2021/01/29 03:51:40;;;;;;;;;;;19.10;56.30;;;;;;5026143;28;1439;-67
2021/01/29 03:54:26;;;;;;;;;;;19.10;56.30;;;;;;5013550;28;1914;-68
2021/01/29 03:56:51;;;;;;;;;;;19.10;56.30;;;;;;5029877;28;1136;-67
2021/01/29 03:59:21;;;;;;;;;;;19.10;56.30;;;;;;5032641;28;1310;-67
2021/01/29 04:01:54;;;;;;;;;;;19.10;56.30;;;;;;5031850;28;1289;-67
2021/01/29 04:04:23;;;;;;;;;;;19.10;56.30;;;;;;5033044;28;1286;-67
2021/01/29 04:06:51;;;;;;;;;;;19.10;56.30;;;;;;5034062;28;1143;-68
2021/01/29 04:09:22;;;;;;;;;;;19.10;56.30;;;;;;5033038;28;1458;-68
2021/01/29 04:11:51;;;;;;;;;;;19.10;56.30;;;;;;5032946;28;1041;-67
2021/01/29 04:14:26;;;;;;;;;;;19.10;56.40;;;;;;5032600;28;1961;-68
2021/01/29 04:16:52;;;;;;;;;;;19.10;56.30;;;;;;5032727;28;1140;-68
2021/01/29 04:19:18;;;;;;;;;;;19.10;56.30;;;;;;5025882;28;1359;-67
2021/01/29 04:21:49;;;;;;;;;;;19.10;56.40;;;;;;5009744;28;1318;-67
2021/01/29 04:24:17;;;;;;;;;;;19.10;56.30;;;;;;5020570;28;1227;-68
2021/01/29 04:26:59;;;;;;;;;;;19.10;56.40;;;;;;5028927;28;1417;-68
2021/01/29 04:29:36;;;;;;;;;;;19.10;56.40;;;;;;5029374;28;1399;-68
2021/01/29 04:32:03;;;;;;;;;;;19.10;56.40;;;;;;5029346;28;1343;-67
2021/01/29 04:34:30;;;;;;;;;;;19.10;56.40;;;;;;5028937;28;2032;-68
2021/01/29 04:36:56;;;;;;;;;;;19.10;56.40;;;;;;5029242;28;1417;-67
2021/01/29 04:39:42;;;;;;;;;;;19.10;56.40;;;;;;5028912;28;1338;-66
2021/01/29 04:42:07;;;;;;;;;;;19.10;56.40;;;;;;5013472;28;1339;-67
2021/01/29 04:44:35;;;;;;;;;;;19.10;56.30;;;;;;5013856;28;1407;-67
2021/01/29 04:47:20;;;;;;;;;;;19.10;56.40;;;;;;5013716;28;1081;-68
2021/01/29 04:49:52;;;;;;;;;;;19.10;56.30;;;;;;5028547;28;1291;-67
2021/01/29 04:52:18;;;;;;;;;;;19.10;56.20;;;;;;5028864;28;1282;-67
2021/01/29 04:55:06;;;;;;;;;;;19.20;56.20;;;;;;5013696;28;1902;-67
2021/01/29 04:57:50;;;;;;;;;;;19.20;56.20;;;;;;5023806;28;1421;-68
2021/01/29 05:00:36;;;;;;;;;;;19.20;56.10;;;;;;5007795;28;1333;-67
2021/01/29 05:03:05;;;;;;;;;;;19.20;56.00;;;;;;5013460;28;1195;-66
2021/01/29 05:05:57;;;;;;;;;;;19.20;56.00;;;;;;5013368;28;1060;-67
2021/01/29 05:08:41;;;;;;;;;;;19.20;55.90;;;;;;4990242;28;1300;-66
2021/01/29 05:11:25;;;;;;;;;;;19.20;55.90;;;;;;5013454;28;1445;-65
2021/01/29 05:13:59;;;;;;;;;;;19.30;55.90;;;;;;5028408;28;1903;-66
2021/01/29 05:16:30;;;;;;;;;;;19.30;55.90;;;;;;5028568;28;1106;-66
2021/01/29 05:19:06;;;;;;;;;;;19.20;55.90;;;;;;5024153;28;1343;-67
2021/01/29 05:21:32;;;;;;;;;;;19.20;55.90;;;;;;5007052;28;1402;-66
2021/01/29 05:24:02;;;;;;;;;;;19.30;55.90;;;;;;5013187;28;1127;-66
2021/01/29 05:26:37;;;;;;;;;;;19.30;55.90;;;;;;5028692;28;1414;-66
2021/01/29 05:29:02;;;;;;;;;;;19.30;55.90;;;;;;5013043;28;1382;-65
2021/01/29 05:31:34;;;;;;;;;;;19.30;55.90;;;;;;5013256;28;1276;-66
2021/01/29 05:34:03;;;;;;;;;;;19.30;55.90;;;;;;5012957;28;1902;-66
2021/01/29 05:36:35;;;;;;;;;;;19.30;55.90;;;;;;5028355;28;1213;-66
2021/01/29 05:39:01;;;;;;;;;;;19.30;55.90;;;;;;5028255;28;1392;-65
2021/01/29 05:41:26;;;;;;;;;;;19.30;55.90;;;;;;5013200;28;1423;-67
2021/01/29 05:43:51;;;;;;;;;;;19.20;55.90;;;;;;5008173;28;1307;-66
2021/01/29 05:46:29;;;;;;;;;;;19.30;55.90;;;;;;5012413;28;1141;-66
2021/01/29 05:49:01;;;;;;;;;;;19.30;55.90;;;;;;5028272;28;1294;-66
2021/01/29 05:51:27;;;;;;;;;;;19.30;55.90;;;;;;5019617;28;1822;-65
2021/01/29 05:54:07;;;;;;;;;;;19.30;55.90;;;;;;5011628;28;1910;-65
2021/01/29 05:56:52;;;;;;;;;;;19.30;56.00;;;;;;5008184;28;1417;-64
2021/01/29 05:59:20;;;;;;;;;;;19.30;55.90;;;;;;5004841;28;1399;-64
2021/01/29 06:01:59;;;;;;;;;;;19.30;56.00;;;;;;5033603;28;1630;-64
2021/01/29 06:04:37;;;;;;;;;;;19.20;55.90;;;;;;5036378;28;1103;-66
2021/01/29 06:07:18;;;;;;;;;;;19.20;55.90;;;;;;5035035;28;1234;-65
2021/01/29 06:10:02;;;;;;;;;;;19.30;56.00;;;;;;5016548;28;1364;-65
2021/01/29 06:12:50;;;;;;;;;;;19.20;55.90;;;;;;5016707;28;1316;-66
2021/01/29 06:15:35;;;;;;;;;;;19.20;56.00;;;;;;5007965;28;1965;-64
2021/01/29 06:18:15;;;;;;;;;;;19.20;56.00;;;;;;5016801;28;1353;-64
2021/01/29 06:20:40;;;;;;;;;;;19.20;56.00;;;;;;5016224;28;1265;-64
2021/01/29 06:23:09;;;;;;;;;;;19.20;56.00;;;;;;5016395;28;1274;-65
2021/01/29 06:25:41;;;;;;;;;;;19.20;56.00;;;;;;5018398;28;1008;-65
2021/01/29 06:28:19;;;;;;;;;;;19.20;56.00;;;;;;5032000;28;1330;-65
2021/01/29 06:30:57;;;;;;;;;;;19.20;56.00;;;;;;5035118;28;1336;-65
2021/01/29 06:33:41;;;;;;;;;;;19.20;56.10;;;;;;5034640;28;1321;-64
2021/01/29 06:36:45;;;;;;;;;;;19.20;56.10;;;;;;5034291;28;1400;-66
2021/01/29 06:39:15;;;;;;;;;;;19.20;56.10;;;;;;4972313;28;1449;-67
2021/01/29 06:41:59;;;;;;;;;;;19.20;56.10;;;;;;4956605;28;1077;-67
2021/01/29 06:44:47;;;;;;;;;;;19.20;56.10;;;;;;5010511;28;1323;-67
2021/01/29 06:47:12;;;;;;;;;;;19.20;56.10;;;;;;5033334;28;1321;-67
2021/01/29 06:49:49;;;;;;;;;;;19.20;56.10;;;;;;5035295;28;1312;-67
2021/01/29 06:52:33;;;;;;;;;;;19.20;56.10;;;;;;5019332;28;1336;-66
2021/01/29 06:55:14;;;;;;;;;;;19.10;56.10;;;;;;5015758;28;1969;-67
2021/01/29 06:57:48;;;;;;;;;;;19.10;56.10;;;;;;5025007;28;1330;-67
2021/01/29 07:00:17;;;;;;;;;;;19.20;56.10;;;;;;5023900;28;1435;-66
2021/01/29 07:03:18;;;;;;;;;;;19.10;56.10;;;;;;5035574;28;1350;-66
2021/01/29 07:05:52;;;;;;;;;;;19.20;56.10;;;;;;4974254;28;1503;-66
2021/01/29 07:08:24;;;;;;;;;;;19.10;56.00;;;;;;5025891;28;1291;-66
2021/01/29 07:11:04;;;;;;;;;;;19.10;56.20;;;;;;5035626;28;1327;-66
2021/01/29 07:13:41;;;;;;;;;;;19.10;56.20;;;;;;5034160;28;1953;-66
2021/01/29 07:16:07;;;;;;;;;;;19.10;56.10;;;;;;5035113;28;1372;-66
2021/01/29 07:18:41;;;;;;;;;;;19.10;56.10;;;;;;5033890;28;1400;-66
2021/01/29 07:21:25;;;;;;;;;;;19.10;56.10;;;;;;5013973;28;1224;-64
2021/01/29 07:23:57;;;;;;;;;;;19.10;56.10;;;;;;5011427;28;1243;-64
2021/01/29 07:26:29;;;;;;;;;;;19.10;56.10;;;;;;5017689;28;1617;-65
2021/01/29 07:29:13;;;;;;;;;;;19.10;56.10;;;;;;5015074;28;1279;-65
2021/01/29 07:31:56;;;;;;;;;;;19.10;56.10;;;;;;5015101;28;1386;-66
2021/01/29 07:34:28;;;;;;;;;;;19.10;56.10;;;;;;5012849;28;1910;-65
2021/01/29 07:36:59;;;;;;;;;;;19.10;56.10;;;;;;5033584;28;1140;-64
2021/01/29 07:39:43;;;;;;;;;;;19.10;56.10;;;;;;5034557;28;1357;-64
2021/01/29 07:42:27;;;;;;;;;;;19.10;56.10;;;;;;5034714;28;1316;-66
2021/01/29 07:44:53;;;;;;;;;;;19.10;56.10;;;;;;5034434;28;1278;-66
2021/01/29 07:47:39;;;;;;;;;;;19.10;56.10;;;;;;5034539;28;1335;-64
2021/01/29 07:50:23;;;;;;;;;;;19.10;56.10;;;;;;5035757;28;1331;-65
2021/01/29 07:53:01;;;;;;;;;;;19.10;56.10;;;;;;5014890;28;1471;-66
2021/01/29 07:55:28;;;;;;;;;;;19.20;56.00;;;;;;5029938;28;1914;-65
2021/01/29 07:58:05;;;;;;;;;;;19.20;56.00;;;;;;5006825;28;1261;-66
2021/01/29 08:00:31;;;;;;;;;;;19.20;56.10;;;;;;5011643;28;1311;-65
2021/01/29 08:03:15;;;;;;;;;;;19.30;55.80;;;;;;5014557;28;1321;-66
2021/01/29 08:05:47;;;;;;;;;;;19.30;55.70;;;;;;5014331;28;1325;-65
2021/01/29 08:08:22;;;;;;;;;;;19.30;55.60;;;;;;5029837;28;1343;-66
2021/01/29 08:10:48;;;;;;;;;;;19.30;55.60;;;;;;5029784;28;1318;-65
2021/01/29 08:13:33;;;;;;;;;;;19.30;55.50;;;;;;5029669;28;1383;-65
2021/01/29 08:16:01;;;;;;;;;;;19.40;55.50;;;;;;5014095;28;1370;-65
2021/01/29 08:18:32;;;;;;;;;;;19.40;55.50;;;;;;5014095;28;1403;-65
2021/01/29 08:21:01;;;;;;;;;;;19.40;55.40;;;;;;5015745;28;1334;-65
2021/01/29 08:23:43;;;;;;;;;;;19.40;55.40;;;;;;5031830;28;1449;-65
2021/01/29 08:26:27;;;;;;;;;;;19.40;55.40;;;;;;5032559;28;1407;-66
2021/01/29 08:28:58;;;;;;;;;;;19.40;55.40;;;;;;5034025;28;1273;-65
2021/01/29 08:31:24;;;;;;;;;;;19.40;55.40;;;;;;5033778;28;1390;-66
2021/01/29 08:33:56;;;;;;;;;;;19.40;55.40;;;;;;5033543;28;1948;-65
2021/01/29 08:36:34;;;;;;;;;;;19.40;55.30;;;;;;5032304;28;1061;-65
2021/01/29 08:39:18;;;;;;;;;;;19.40;55.40;;;;;;5033303;28;1380;-65
2021/01/29 08:41:53;;;;;;;;;;;19.40;55.40;;;;;;5033627;28;1342;-66
2021/01/29 08:44:24;;;;;;;;;;;19.40;55.40;;;;;;5032091;28;1357;-66
2021/01/29 08:46:54;;;;;;;;;;;19.40;55.40;;;;;;5033478;28;1299;-65
2021/01/29 08:49:38;;;;;;;;;;;19.40;55.40;;;;;;5032009;28;1306;-65
2021/01/29 08:52:07;;;;;;;;;;;19.40;55.50;;;;;;5020330;28;1412;-65
2021/01/29 08:54:50;;;;;;;;;;;19.40;55.50;;;;;;5013611;28;1910;-66
2021/01/29 08:57:19;;;;;;;;;;;19.40;55.50;;;;;;5016112;28;1290;-65
2021/01/29 08:59:44;;;;;;;;;;;19.40;55.50;;;;;;5031878;28;1522;-66
2021/01/29 09:02:18;;;;;;;;;;;19.40;55.50;;;;;;5033459;28;1346;-65
2021/01/29 09:04:47;;;;;;;;;;;19.40;55.50;;;;;;5033277;28;1358;-65
2021/01/29 09:07:19;;;;;;;;;;;19.40;55.50;;;;;;5033096;28;1301;-66
2021/01/29 09:09:45;;;;;;;;;;;19.40;55.60;;;;;;5017133;28;1360;-66
2021/01/29 09:12:13;;;;;;;;;;;19.30;55.50;;;;;;5011842;28;1271;-65
2021/01/29 09:14:39;;;;;;;;;;;19.30;55.50;;;;;;5028611;28;1901;-65
2021/01/29 09:17:11;;;;;;;;;;;19.40;55.60;;;;;;5028509;28;1351;-66
2021/01/29 09:19:38;;;;;;;;;;;19.30;55.50;;;;;;5003673;28;1354;-65
2021/01/29 09:22:21;;;;;;;;;;;19.30;55.50;;;;;;5030946;28;1346;-66
2021/01/29 09:24:51;;;;;;;;;;;19.40;55.60;;;;;;5031803;28;1365;-65
2021/01/29 09:27:24;;;;;;;;;;;19.30;55.50;;;;;;5033162;28;1378;-66
2021/01/29 09:29:50;;;;;;;;;;;19.30;55.60;;;;;;5031701;28;1398;-66
2021/01/29 09:32:17;;;;;;;;;;;19.30;55.60;;;;;;5031650;28;1124;-65
2021/01/29 09:34:46;;;;;;;;;;;19.30;55.60;;;;;;5031150;28;1898;-66
2021/01/29 09:37:13;;;;;;;;;;;19.30;55.60;;;;;;5032441;28;1378;-66
2021/01/29 09:40:11;;;;;;;;;;;19.30;55.70;;;;;;5032038;28;1332;-65
2021/01/29 09:42:39;;;;;;;;;;;19.30;55.70;;;;;;4999387;28;1362;-65
2021/01/29 09:45:05;;;;;;;;;;;19.30;55.70;;;;;;5032744;28;1315;-65
2021/01/29 09:47:32;;;;;;;;;;;19.30;55.70;;;;;;5010034;28;1502;-65
2021/01/29 09:50:01;;;;;;;;;;;19.30;55.70;;;;;;5026844;28;2232;-66
2021/01/29 09:52:33;;;;;;;;;;;19.30;55.70;;;;;;5012746;28;1204;-66
2021/01/29 09:55:02;;;;;;;;;;;19.30;55.70;;;;;;5027419;28;1919;-65
2021/01/29 09:57:29;;;;;;;;;;;19.30;55.70;;;;;;5025157;28;1332;-66
2021/01/29 09:59:57;;;;;;;;;;;19.30;55.80;;;;;;5007827;28;1296;-66
2021/01/29 10:02:32;;;;;;;;;;;19.30;55.80;;;;;;5011193;28;1038;-65
2021/01/29 10:04:57;;;;;;;;;;;19.30;55.80;;;;;;5028005;28;1243;-66
2021/01/29 10:07:23;;;;;;;;;;;19.30;55.80;;;;;;5012752;28;1095;-65
2021/01/29 10:09:57;;;;;;;;;;;19.30;55.80;;;;;;5027715;28;1290;-65
2021/01/29 10:12:23;;;;;;;;;;;19.30;55.70;;;;;;5027975;28;1288;-65
2021/01/29 10:14:58;;;;;;;;;;;19.30;55.70;;;;;;5024980;28;1894;-65
2021/01/29 10:17:37;;;;;;;;;;;19.40;55.60;;;;;;5000880;28;1338;-65
2021/01/29 10:20:07;;;;;;;;;;;19.60;55.40;;;;;;5013726;28;1302;-65
2021/01/29 10:22:57;;;;;;;;;;;19.70;55.10;;;;;;5008742;28;1574;-66
2021/01/29 10:25:27;;;;;;;;;;;19.80;54.90;;;;;;5010251;28;2173;-66
2021/01/29 10:27:55;;;;;;;;;;;19.90;54.60;;;;;;5006808;28;1853;-65
2021/01/29 10:30:24;;;;;;;;;;;20.00;54.30;;;;;;5012056;28;2239;-66
2021/01/29 10:32:56;;;;;;;;;;;20.20;54.10;;;;;;5012645;28;1144;-66
2021/01/29 10:35:24;;;;;;;;;;;20.30;53.90;;;;;;5027474;28;1902;-66
2021/01/29 10:37:58;;;;;;;;;;;20.40;53.70;;;;;;5012357;28;1370;-66
2021/01/29 10:40:33;;;;;;;;;;;20.50;53.50;;;;;;5012367;28;1344;-66
2021/01/29 10:43:01;;;;;;;;;;;20.50;53.30;;;;;;5027561;28;1153;-65
2021/01/29 10:45:31;;;;;;;;;;;20.60;53.20;;;;;;5011728;28;1598;-65
2021/01/29 10:48:15;;;;;;;;;;;20.60;52.90;;;;;;5008135;28;1384;-65
2021/01/29 10:50:47;;;;;;;;;;;20.70;52.90;;;;;;5015873;28;1422;-65
2021/01/29 10:53:19;;;;;;;;;;;20.80;52.80;;;;;;5014508;28;1186;-66
2021/01/29 10:56:01;;;;;;;;;;;20.80;52.60;;;;;;5027788;28;1905;-65
2021/01/29 10:58:45;;;;;;;;;;;20.90;52.60;;;;;;5029702;28;1836;-65
2021/01/29 11:01:12;;;;;;;;;;;20.90;52.50;;;;;;5015829;28;1422;-65
2021/01/29 11:03:43;;;;;;;;;;;20.90;52.40;;;;;;5030296;28;1939;-65
2021/01/29 11:06:09;;;;;;;;;;;20.90;52.40;;;;;;5030814;28;1448;-65
2021/01/29 11:08:39;;;;;;;;;;;21.00;52.40;;;;;;5014254;28;1359;-65
2021/01/29 11:11:08;;;;;;;;;;;21.00;52.30;;;;;;5030758;28;1018;-65
2021/01/29 11:13:53;;;;;;;;;;;21.00;52.30;;;;;;5030542;28;1894;-65
2021/01/29 11:16:19;;;;;;;;;;;21.00;52.30;;;;;;5015487;28;1328;-65
2021/01/29 11:18:47;;;;;;;;;;;21.10;52.30;;;;;;5030600;28;1465;-65
2021/01/29 11:21:21;;;;;;;;;;;21.10;52.30;;;;;;5012321;28;2209;-65
2021/01/29 11:23:47;;;;;;;;;;;21.10;52.20;;;;;;5015280;28;1378;-65
2021/01/29 11:26:14;;;;;;;;;;;21.10;52.20;;;;;;5014890;28;1323;-65
2021/01/29 11:28:44;;;;;;;;;;;21.10;52.20;;;;;;5030783;28;1783;-65
2021/01/29 11:31:30;;;;;;;;;;;21.10;52.10;;;;;;5029365;28;2110;-65
2021/01/29 11:33:56;;;;;;;;;;;21.10;52.10;;;;;;5014264;28;1964;-65
2021/01/29 11:36:26;;;;;;;;;;;21.10;52.20;;;;;;5014817;28;1308;-65
2021/01/29 11:38:54;;;;;;;;;;;21.10;52.20;;;;;;5014925;28;1235;-65
2021/01/29 11:41:28;;;;;;;;;;;21.20;52.20;;;;;;5014784;28;1215;-65
2021/01/29 11:44:12;;;;;;;;;;;21.20;52.20;;;;;;5030297;28;1376;-65
2021/01/29 11:46:39;;;;;;;;;;;21.20;52.20;;;;;;5014584;28;1385;-65
2021/01/29 11:49:10;;;;;;;;;;;21.10;52.20;;;;;;5030013;28;1995;-65
2021/01/29 11:51:38;;;;;;;;;;;21.20;52.20;;;;;;5030250;28;1268;-65
2021/01/29 11:54:09;;;;;;;;;;;21.10;52.20;;;;;;5014376;28;1906;-65
2021/01/29 11:56:41;;;;;;;;;;;21.10;52.20;;;;;;5029736;28;1371;-65
2021/01/29 11:59:25;;;;;;;;;;;21.10;52.30;;;;;;5014261;28;1287;-65
2021/01/29 12:02:09;;;;;;;;;;;21.10;52.30;;;;;;5012960;28;1771;-66
2021/01/29 12:04:39;;;;;;;;;;;21.10;52.30;;;;;;5010816;28;1974;-65
2021/01/29 12:07:15;;;;;;;;;;;21.10;52.40;;;;;;5017623;28;1416;-65
2021/01/29 12:09:51;;;;;;;;;;;21.10;52.40;;;;;;5032060;28;1841;-65
2021/01/29 12:12:22;;;;;;;;;;;21.10;52.50;;;;;;5017066;28;1640;-65
2021/01/29 12:15:08;;;;;;;;;;;21.00;52.40;;;;;;5018889;28;1923;-65
2021/01/29 12:17:34;;;;;;;;;;;21.00;52.50;;;;;;5017937;28;1444;-65
2021/01/29 12:20:07;;;;;;;;;;;21.00;53.10;;;;;;5019274;28;1707;-65
2021/01/29 12:22:41;;;;;;;;;;;21.00;52.60;;;;;;5029844;28;1769;-65
2021/01/29 12:25:10;;;;;;;;;;;21.00;52.60;;;;;;5029377;28;1458;-65
2021/01/29 12:27:38;;;;;;;;;;;20.90;52.60;;;;;;5014242;28;1656;-65
2021/01/29 12:30:11;;;;;;;;;;;20.90;52.70;;;;;;5029390;28;1670;-65
2021/01/29 12:32:40;;;;;;;;;;;20.90;52.80;;;;;;5013951;28;1372;-65
2021/01/29 12:35:06;;;;;;;;;;;20.90;52.80;;;;;;5029168;28;1907;-65
2021/01/29 12:37:36;;;;;;;;;;;20.90;52.90;;;;;;5013843;28;1634;-65
2021/01/29 12:40:04;;;;;;;;;;;20.80;52.90;;;;;;5029302;28;1494;-65
2021/01/29 12:42:39;;;;;;;;;;;20.80;53.00;;;;;;5029086;28;1633;-65
2021/01/29 12:45:05;;;;;;;;;;;20.80;53.00;;;;;;5013508;28;1695;-65
2021/01/29 12:47:31;;;;;;;;;;;20.80;53.10;;;;;;5014898;28;1637;-65
2021/01/29 12:49:57;;;;;;;;;;;20.80;53.10;;;;;;5013579;28;2210;-65
2021/01/29 12:52:44;;;;;;;;;;;20.70;53.10;;;;;;5013708;28;1227;-65
2021/01/29 12:55:14;;;;;;;;;;;20.70;53.20;;;;;;5013289;28;1906;-65
2021/01/29 12:57:40;;;;;;;;;;;20.70;53.20;;;;;;5028882;28;1360;-65
2021/01/29 13:00:05;;;;;;;;;;;20.70;53.30;;;;;;5028884;28;1225;-65
2021/01/29 13:02:31;;;;;;;;;;;20.70;53.30;;;;;;5013858;28;1136;-66
2021/01/29 13:04:59;;;;;;;;;;;20.70;53.40;;;;;;5012804;28;1471;-65
2021/01/29 13:07:28;;;;;;;;;;;20.60;53.30;;;;;;5011129;28;2114;-66
2021/01/29 13:09:53;;;;;;;;;;;20.60;53.40;;;;;;5007491;28;1273;-65
2021/01/29 13:12:21;;;;;;;;;;;20.60;53.40;;;;;;5012272;28;1377;-66
2021/01/29 13:15:00;;;;;;;;;;;20.50;53.40;;;;;;5012891;28;1907;-66
2021/01/29 13:17:31;;;;;;;;;;;20.60;53.50;;;;;;5013308;28;1438;-66
2021/01/29 13:20:01;;;;;;;;;;;20.50;53.50;;;;;;5005219;28;1355;-66
2021/01/29 13:22:46;;;;;;;;;;;20.50;53.50;;;;;;5015439;28;1331;-66
2021/01/29 13:25:13;;;;;;;;;;;20.50;53.60;;;;;;5031379;28;1407;-66
2021/01/29 13:27:39;;;;;;;;;;;20.50;53.80;;;;;;5033117;28;1295;-66
2021/01/29 13:30:15;;;;;;;;;;;20.50;54.00;;;;;;5031913;28;1413;-66
2021/01/29 13:32:41;;;;;;;;;;;20.50;54.00;;;;;;5031626;28;1264;-66
2021/01/29 13:35:07;;;;;;;;;;;20.50;54.10;;;;;;5032758;28;1903;-66
2021/01/29 13:37:32;;;;;;;;;;;20.40;54.00;;;;;;5032710;28;1095;-66
2021/01/29 13:40:21;;;;;;;;;;;20.40;53.70;;;;;;5031711;28;1467;-66
2021/01/29 13:42:47;;;;;;;;;;;20.30;53.30;;;;;;5024556;28;1358;-65
2021/01/29 13:45:26;;;;;;;;;;;20.30;53.10;;;;;;5031302;28;1450;-65
2021/01/29 13:48:02;;;;;;;;;;;20.30;53.20;;;;;;5031281;28;1328;-66
2021/01/29 13:50:30;;;;;;;;;;;20.20;53.10;;;;;;5032609;28;1345;-66
2021/01/29 13:52:56;;;;;;;;;;;20.20;53.20;;;;;;5002173;28;1320;-65
2021/01/29 13:55:32;;;;;;;;;;;20.10;53.20;;;;;;5012158;28;1910;-66
2021/01/29 13:58:03;;;;;;;;;;;20.10;53.20;;;;;;5012616;28;1166;-65
2021/01/29 14:00:29;;;;;;;;;;;20.10;53.20;;;;;;5024401;28;1424;-66
2021/01/29 14:03:08;;;;;;;;;;;20.10;53.30;;;;;;5014759;28;1895;-66
2021/01/29 14:05:33;;;;;;;;;;;20.00;53.40;;;;;;5011058;28;1237;-65
2021/01/29 14:08:04;;;;;;;;;;;20.00;53.30;;;;;;5026960;28;2005;-65
2021/01/29 14:10:30;;;;;;;;;;;20.00;53.40;;;;;;5011695;28;1589;-66
2021/01/29 14:13:14;;;;;;;;;;;19.90;53.50;;;;;;5013067;28;1330;-65
2021/01/29 14:15:42;;;;;;;;;;;19.90;53.50;;;;;;5012653;28;2238;-65
2021/01/29 14:18:15;;;;;;;;;;;19.90;53.60;;;;;;5011782;28;2170;-65
2021/01/29 14:20:47;;;;;;;;;;;19.90;53.60;;;;;;5011860;28;1524;-66
2021/01/29 14:23:21;;;;;;;;;;;19.90;53.70;;;;;;5032089;28;2119;-66
2021/01/29 14:26:13;;;;;;;;;;;19.90;53.80;;;;;;5014460;28;1569;-67
2021/01/29 14:28:57;;;;;;;;;;;19.90;53.80;;;;;;5010696;28;2066;-66
2021/01/29 14:31:22;;;;;;;;;;;19.90;53.90;;;;;;5016398;28;1463;-66
2021/01/29 14:33:47;;;;;;;;;;;19.90;53.90;;;;;;5016302;28;1956;-66
2021/01/29 14:36:17;;;;;;;;;;;19.80;53.90;;;;;;5016217;28;1147;-67
2021/01/29 14:39:02;;;;;;;;;;;19.80;53.90;;;;;;5016215;28;1432;-67
2021/01/29 14:41:34;;;;;;;;;;;19.80;54.00;;;;;;5014568;28;1204;-66
2021/01/29 14:44:05;;;;;;;;;;;19.80;54.00;;;;;;5016002;28;1376;-66
2021/01/29 14:46:34;;;;;;;;;;;19.80;54.10;;;;;;5016288;28;1106;-66
2021/01/29 14:48:59;;;;;;;;;;;19.80;54.10;;;;;;5016044;28;1316;-66
2021/01/29 14:51:26;;;;;;;;;;;19.80;54.10;;;;;;5016119;28;1218;-67
2021/01/29 14:54:11;;;;;;;;;;;19.70;54.10;;;;;;5014336;28;1903;-66
2021/01/29 14:56:55;;;;;;;;;;;19.70;54.10;;;;;;5031051;28;1332;-66
2021/01/29 14:59:22;;;;;;;;;;;19.70;54.10;;;;;;5009091;28;1672;-66
2021/01/29 15:02:11;;;;;;;;;;;19.70;54.10;;;;;;5024147;28;1161;-65